createdAt,value
2023-08-14T00:00:26.946Z,20.20
2023-08-14T00:02:28.997Z,20.20
2023-08-14T00:04:30.966Z,20.20
2023-08-14T00:06:32.990Z,20.10
2023-08-14T00:08:35.165Z,20.10
2023-08-14T00:10:37.239Z,20.10
2023-08-14T00:12:39.263Z,20.10
2023-08-14T00:14:41.318Z,20.10
2023-08-14T00:16:44.711Z,20.10
2023-08-14T00:18:47.031Z,20.10
2023-08-14T00:20:49.158Z,20.00
2023-08-14T00:22:51.193Z,20.00
2023-08-14T00:24:53.172Z,20.00
2023-08-14T00:26:55.280Z,20.00
2023-08-14T00:28:57.474Z,20.00
2023-08-14T00:30:59.786Z,20.10
2023-08-14T00:33:03.386Z,20.10
2023-08-14T00:35:05.961Z,20.10
2023-08-14T00:37:07.935Z,20.10
2023-08-14T00:39:10.079Z,20.10
2023-08-14T00:41:12.263Z,20.10
2023-08-14T00:43:14.307Z,20.10
2023-08-14T00:45:17.271Z,20.10
2023-08-14T00:47:20.114Z,20.10
2023-08-14T00:49:23.744Z,20.10
2023-08-14T00:51:26.525Z,20.10
2023-08-14T00:53:31.739Z,20.10
2023-08-14T00:55:33.995Z,20.10
2023-08-14T00:57:36.777Z,20.00
2023-08-14T00:59:38.823Z,20.00
2023-08-14T01:01:40.859Z,20.00
2023-08-14T01:03:43.724Z,20.00
2023-08-14T01:05:47.753Z,20.00
2023-08-14T01:07:49.747Z,20.00
2023-08-14T01:09:53.023Z,19.90
2023-08-14T01:12:03.898Z,19.90
2023-08-14T01:16:22.633Z,19.90
2023-08-14T01:18:27.380Z,19.80
2023-08-14T01:20:31.845Z,19.80
2023-08-14T01:22:44.902Z,19.80
2023-08-14T01:24:52.740Z,19.90
2023-08-14T01:26:56.451Z,19.90
2023-08-14T01:28:59.776Z,20.00
2023-08-14T01:31:03.303Z,19.90
2023-08-14T01:33:05.429Z,19.80
2023-08-14T01:35:08.687Z,19.70
2023-08-14T01:37:17.600Z,19.70
2023-08-14T01:39:24.900Z,19.80
2023-08-14T01:41:32.901Z,19.80
2023-08-14T01:43:41.438Z,19.80
2023-08-14T01:45:43.556Z,19.70
2023-08-14T01:47:47.870Z,19.80
2023-08-14T01:49:52.343Z,19.90
2023-08-14T01:51:55.929Z,19.80
2023-08-14T01:53:58.740Z,19.90
2023-08-14T01:56:00.998Z,19.90
2023-08-14T01:58:03.183Z,19.90
2023-08-14T02:00:11.211Z,19.90
2023-08-14T02:02:14.690Z,19.90
2023-08-14T02:04:16.716Z,19.90
2023-08-14T02:06:18.746Z,19.90
2023-08-14T02:08:21.066Z,19.90
2023-08-14T02:10:23.249Z,20.00
2023-08-14T02:12:25.396Z,19.90
2023-08-14T02:14:27.587Z,20.00
2023-08-14T02:16:30.978Z,20.00
2023-08-14T02:18:33.045Z,20.00
2023-08-14T02:20:35.180Z,19.90
2023-08-14T02:22:37.308Z,19.90
2023-08-14T02:24:39.398Z,19.90
2023-08-14T02:26:41.400Z,19.90
2023-08-14T02:28:43.354Z,19.80
2023-08-14T02:30:45.469Z,19.80
2023-08-14T02:32:48.962Z,19.70
2023-08-14T02:34:53.962Z,19.70
2023-08-14T02:36:55.979Z,19.70
2023-08-14T02:38:58.321Z,19.70
2023-08-14T02:41:03.114Z,19.70
2023-08-14T02:43:05.308Z,19.70
2023-08-14T02:45:08.471Z,19.70
2023-08-14T02:47:10.523Z,19.60
2023-08-14T02:49:13.921Z,19.70
2023-08-14T02:51:16.570Z,19.70
2023-08-14T02:53:18.568Z,19.70
2023-08-14T02:55:20.719Z,19.70
2023-08-14T02:57:22.756Z,19.70
2023-08-14T02:59:24.825Z,19.70
2023-08-14T03:01:26.858Z,19.70
2023-08-14T03:03:28.913Z,19.70
2023-08-14T03:05:32.257Z,19.70
2023-08-14T03:07:34.396Z,19.70
2023-08-14T03:09:36.884Z,19.70
2023-08-14T03:11:39.140Z,19.70
2023-08-14T03:13:41.114Z,19.70
2023-08-14T03:15:43.165Z,19.70
2023-08-14T03:17:45.230Z,19.70
2023-08-14T03:19:47.285Z,19.80
2023-08-14T03:21:52.278Z,19.80
2023-08-14T03:23:54.262Z,19.80
2023-08-14T03:25:56.378Z,19.70
2023-08-14T03:27:58.395Z,19.70
2023-08-14T03:30:00.547Z,19.70
2023-08-14T03:32:02.553Z,19.70
2023-08-14T03:34:05.026Z,19.70
2023-08-14T03:36:07.043Z,19.80
2023-08-14T03:38:10.410Z,19.80
2023-08-14T03:40:12.811Z,19.80
2023-08-14T03:42:14.856Z,19.80
2023-08-14T03:44:16.896Z,19.80
2023-08-14T03:46:18.975Z,19.80
2023-08-14T03:48:21.034Z,19.80
2023-08-14T03:50:23.484Z,19.70
2023-08-14T03:52:25.608Z,19.80
2023-08-14T03:54:29.002Z,19.80
2023-08-14T03:56:31.048Z,19.80
2023-08-14T03:58:33.131Z,19.70
2023-08-14T04:00:36.165Z,19.70
2023-08-14T04:02:38.368Z,19.70
2023-08-14T04:04:40.546Z,19.70
2023-08-14T04:06:43.812Z,19.60
2023-08-14T04:08:45.910Z,19.60
2023-08-14T04:10:55.239Z,19.60
2023-08-14T04:12:59.231Z,19.60
2023-08-14T04:15:14.023Z,19.50
2023-08-14T04:17:16.071Z,19.50
2023-08-14T04:19:20.145Z,19.50
2023-08-14T04:21:22.258Z,19.50
2023-08-14T04:23:25.422Z,19.40
2023-08-14T04:25:27.843Z,19.40
2023-08-14T04:27:31.408Z,19.30
2023-08-14T04:29:33.612Z,19.40
2023-08-14T04:31:36.191Z,19.40
2023-08-14T04:33:38.467Z,19.40
2023-08-14T04:35:40.494Z,19.30
2023-08-14T04:37:42.563Z,19.30
2023-08-14T04:39:44.709Z,19.30
2023-08-14T04:41:46.757Z,19.30
2023-08-14T04:43:50.136Z,19.30
2023-08-14T04:45:52.256Z,19.30
2023-08-14T04:47:57.158Z,19.30
2023-08-14T04:49:59.738Z,19.20
2023-08-14T04:52:01.894Z,19.20
2023-08-14T04:54:04.402Z,19.30
2023-08-14T04:56:07.180Z,19.20
2023-08-14T04:58:09.406Z,19.20
2023-08-14T05:00:14.650Z,19.20
2023-08-14T05:02:17.018Z,19.20
2023-08-14T05:04:19.585Z,19.20
2023-08-14T05:06:21.731Z,19.30
2023-08-14T05:08:23.794Z,19.30
2023-08-14T05:10:25.847Z,19.20
2023-08-14T05:12:27.860Z,19.30
2023-08-14T05:14:30.106Z,19.30
2023-08-14T05:16:33.510Z,19.40
2023-08-14T05:18:35.552Z,19.40
2023-08-14T05:20:37.581Z,19.30
2023-08-14T05:22:39.668Z,19.30
2023-08-14T05:24:41.643Z,19.30
2023-08-14T05:26:43.622Z,19.20
2023-08-14T05:28:45.925Z,19.20
2023-08-14T05:30:48.064Z,19.20
2023-08-14T05:32:51.474Z,19.20
2023-08-14T05:34:53.556Z,19.20
2023-08-14T05:36:55.593Z,19.20
2023-08-14T05:38:57.617Z,19.20
2023-08-14T05:40:59.596Z,19.10
2023-08-14T05:43:06.145Z,19.10
2023-08-14T05:45:08.789Z,19.10
2023-08-14T05:47:10.764Z,19.00
2023-08-14T05:49:14.213Z,19.00
2023-08-14T05:51:16.448Z,19.00
2023-08-14T05:53:18.552Z,19.00
2023-08-14T05:55:20.903Z,18.90
2023-08-14T05:57:22.983Z,18.90
2023-08-14T05:59:25.022Z,18.90
2023-08-14T06:01:27.926Z,19.00
2023-08-14T06:03:43.624Z,19.00
2023-08-14T06:05:48.133Z,19.10
2023-08-14T06:07:52.204Z,19.10
2023-08-14T06:09:54.371Z,19.10
2023-08-14T06:11:56.523Z,19.10
2023-08-14T06:13:58.519Z,19.10
2023-08-14T06:16:00.697Z,19.10
2023-08-14T06:18:02.782Z,19.10
2023-08-14T06:20:05.892Z,19.10
2023-08-14T06:22:09.355Z,19.10
2023-08-14T06:24:11.910Z,19.10
2023-08-14T06:26:13.895Z,19.20
2023-08-14T06:28:15.903Z,19.20
2023-08-14T06:30:18.328Z,19.20
2023-08-14T06:32:20.686Z,19.20
2023-08-14T06:34:22.890Z,19.30
2023-08-14T06:36:25.682Z,19.30
2023-08-14T06:38:29.118Z,19.40
2023-08-14T06:40:31.255Z,19.50
2023-08-14T06:42:33.312Z,19.60
2023-08-14T06:44:35.654Z,19.60
2023-08-14T06:46:38.027Z,19.80
2023-08-14T06:48:40.007Z,19.90
2023-08-14T06:50:42.259Z,20.00
2023-08-14T06:52:44.385Z,20.00
2023-08-14T06:54:47.793Z,20.00
2023-08-14T06:56:49.948Z,20.00
2023-08-14T06:58:52.165Z,20.00
2023-08-14T07:00:55.812Z,20.10
2023-08-14T07:02:57.954Z,20.10
2023-08-14T07:05:00.189Z,20.20
2023-08-14T07:07:02.257Z,20.20
2023-08-14T07:09:04.576Z,20.30
2023-08-14T07:11:07.935Z,20.30
2023-08-14T07:13:11.437Z,20.30
2023-08-14T07:15:13.441Z,20.40
2023-08-14T07:17:15.575Z,20.50
2023-08-14T07:19:18.855Z,20.50
2023-08-14T07:21:20.978Z,20.70
2023-08-14T07:23:23.141Z,20.80
2023-08-14T07:25:26.076Z,20.90
2023-08-14T07:27:29.526Z,21.10
2023-08-14T07:29:36.396Z,21.30
2023-08-14T07:31:38.627Z,21.40
2023-08-14T07:33:40.800Z,21.50
2023-08-14T07:35:42.966Z,21.70
2023-08-14T07:37:45.123Z,21.70
2023-08-14T07:39:48.438Z,21.80
2023-08-14T07:41:50.468Z,21.90
2023-08-14T07:43:53.884Z,22.00
2023-08-14T07:45:55.921Z,22.00
2023-08-14T07:47:58.002Z,22.10
2023-08-14T07:50:00.077Z,22.10
2023-08-14T07:52:02.235Z,22.20
2023-08-14T07:54:05.099Z,22.20
2023-08-14T07:56:07.129Z,22.30
2023-08-14T07:58:09.792Z,22.40
2023-08-14T08:00:17.197Z,22.50
2023-08-14T08:02:19.504Z,22.50
2023-08-14T08:06:26.846Z,22.70
2023-08-14T08:08:28.881Z,22.70
2023-08-14T08:10:31.614Z,22.70
2023-08-14T08:12:33.665Z,22.90
2023-08-14T08:14:36.824Z,23.00
2023-08-14T08:16:41.027Z,23.10
2023-08-14T08:18:43.079Z,23.10
2023-08-14T08:20:45.208Z,23.10
2023-08-14T08:22:47.320Z,23.10
2023-08-14T08:24:49.319Z,23.20
2023-08-14T08:26:51.476Z,23.20
2023-08-14T08:28:53.565Z,23.40
2023-08-14T08:30:55.755Z,23.50
2023-08-14T08:35:04.352Z,23.70
2023-08-14T08:37:07.217Z,23.80
2023-08-14T08:39:09.229Z,23.90
2023-08-14T08:41:14.433Z,24.00
2023-08-14T08:43:17.913Z,23.90
2023-08-14T08:45:22.744Z,23.90
2023-08-14T08:47:28.102Z,23.80
2023-08-14T08:49:31.720Z,23.80
2023-08-14T08:51:35.440Z,23.70
2023-08-14T08:53:38.532Z,23.90
2023-08-14T08:55:40.986Z,23.90
2023-08-14T08:57:44.012Z,24.10
2023-08-14T08:59:47.503Z,24.10
2023-08-14T09:01:50.114Z,24.20
2023-08-14T09:03:52.322Z,24.30
2023-08-14T09:05:56.414Z,24.30
2023-08-14T09:07:58.829Z,24.50
2023-08-14T09:10:02.159Z,24.40
2023-08-14T09:12:04.932Z,24.40
2023-08-14T09:14:07.620Z,24.30
2023-08-14T09:16:13.599Z,24.30
2023-08-14T09:18:15.622Z,24.30
2023-08-14T09:20:24.135Z,24.10
2023-08-14T09:22:32.022Z,24.10
2023-08-14T09:24:35.278Z,24.10
2023-08-14T09:26:37.648Z,24.20
2023-08-14T09:28:40.080Z,24.30
2023-08-14T09:30:42.561Z,24.30
2023-08-14T09:32:44.724Z,24.40
2023-08-14T09:34:47.166Z,24.40
2023-08-14T09:36:50.599Z,24.40
2023-08-14T09:38:54.389Z,24.40
2023-08-14T09:40:58.294Z,24.40
2023-08-14T09:43:01.489Z,24.50
2023-08-14T09:45:03.851Z,24.50
2023-08-14T09:47:06.160Z,24.60
2023-08-14T09:49:09.553Z,24.60
2023-08-14T09:51:12.675Z,24.60
2023-08-14T09:53:14.698Z,24.70
2023-08-14T09:55:18.615Z,24.70
2023-08-14T09:57:26.287Z,24.60
2023-08-14T09:59:31.294Z,24.70
2023-08-14T10:01:34.196Z,25.00
2023-08-14T10:03:37.811Z,25.10
2023-08-14T10:05:40.019Z,25.20
2023-08-14T10:07:43.301Z,25.40
2023-08-14T10:09:49.318Z,25.50
2023-08-14T10:11:55.822Z,25.50
2023-08-14T10:14:02.162Z,25.70
2023-08-14T10:16:07.276Z,25.70
2023-08-14T10:18:13.720Z,25.70
2023-08-14T10:20:18.635Z,25.80
2023-08-14T10:22:20.917Z,26.00
2023-08-14T10:24:24.987Z,26.00
2023-08-14T10:26:28.254Z,26.00
2023-08-14T10:28:32.982Z,26.10
2023-08-14T10:30:36.461Z,26.00
2023-08-14T10:32:40.017Z,26.10
2023-08-14T10:34:43.790Z,26.20
2023-08-14T10:36:50.403Z,26.30
2023-08-14T10:38:56.476Z,26.30
2023-08-14T10:45:23.988Z,26.10
2023-08-14T10:47:26.067Z,26.10
2023-08-14T10:49:29.132Z,26.10
2023-08-14T10:51:32.217Z,26.10
2023-08-14T10:53:34.391Z,26.10
2023-08-14T10:55:38.479Z,26.10
2023-08-14T10:57:40.513Z,26.10
2023-08-14T10:59:42.979Z,26.10
2023-08-14T11:01:52.046Z,26.20
2023-08-14T11:04:05.040Z,26.20
2023-08-14T11:06:07.333Z,26.20
2023-08-14T11:08:11.996Z,26.20
2023-08-14T11:10:16.188Z,26.30
2023-08-14T11:12:18.731Z,26.40
2023-08-14T11:14:21.137Z,26.40
2023-08-14T11:22:45.160Z,26.60
2023-08-14T11:24:47.873Z,26.60
2023-08-14T11:26:49.920Z,26.60
2023-08-14T11:28:52.882Z,26.70
2023-08-14T11:30:54.940Z,26.80
2023-08-14T11:32:57.382Z,26.90
2023-08-14T11:35:01.613Z,26.90
2023-08-14T11:37:07.584Z,26.90
2023-08-14T11:41:31.000Z,27.20
2023-08-14T11:43:37.189Z,27.20
2023-08-14T11:45:39.505Z,27.20
2023-08-14T11:47:48.630Z,27.40
2023-08-14T11:49:52.048Z,27.30
2023-08-14T11:51:55.600Z,27.20
2023-08-14T11:54:00.189Z,27.30
2023-08-14T11:56:02.353Z,27.40
2023-08-14T11:58:04.716Z,27.30
2023-08-14T12:00:16.336Z,27.30
2023-08-14T12:02:21.152Z,27.30
2023-08-14T12:04:23.425Z,27.30
2023-08-14T12:06:26.184Z,27.20
2023-08-14T12:08:30.718Z,27.20
2023-08-14T12:10:36.109Z,27.20
2023-08-14T12:12:51.407Z,27.30
2023-08-14T12:14:57.817Z,27.30
2023-08-14T12:17:10.179Z,27.40
2023-08-14T12:19:15.029Z,27.40
2023-08-14T12:21:17.414Z,27.40
2023-08-14T12:23:24.702Z,27.40
2023-08-14T12:25:30.218Z,27.50
2023-08-14T12:27:32.312Z,27.60
2023-08-14T12:29:34.989Z,27.60
2023-08-14T12:31:37.135Z,27.70
2023-08-14T12:33:41.383Z,27.70
2023-08-14T12:35:43.630Z,27.70
2023-08-14T12:37:45.740Z,27.70
2023-08-14T12:39:55.563Z,27.80
2023-08-14T12:42:01.246Z,27.90
2023-08-14T12:44:03.879Z,27.90
2023-08-14T12:46:05.917Z,28.00
2023-08-14T12:48:08.064Z,28.00
2023-08-14T12:50:10.527Z,28.00
2023-08-14T12:54:20.029Z,28.00
2023-08-14T12:58:30.530Z,28.10
2023-08-14T13:00:32.796Z,28.00
2023-08-14T13:02:35.028Z,27.90
2023-08-14T13:04:37.059Z,28.00
2023-08-14T13:06:41.440Z,28.10
2023-08-14T13:08:43.512Z,28.10
2023-08-14T13:10:45.650Z,28.00
2023-08-14T13:12:47.792Z,27.90
2023-08-14T13:14:51.259Z,27.90
2023-08-14T13:16:53.375Z,28.00
2023-08-14T13:18:55.462Z,28.00
2023-08-14T13:20:57.505Z,28.10
2023-08-14T13:22:59.626Z,28.10
2023-08-14T13:25:01.810Z,28.20
2023-08-14T13:27:09.744Z,28.20
2023-08-14T13:29:12.083Z,28.20
2023-08-14T13:31:15.550Z,28.20
2023-08-14T13:33:17.869Z,28.30
2023-08-14T13:35:19.975Z,28.30
2023-08-14T13:37:22.002Z,28.30
2023-08-14T13:39:24.086Z,28.30
2023-08-14T13:41:26.121Z,28.30
2023-08-14T13:43:28.675Z,28.30
2023-08-14T13:45:31.447Z,28.10
2023-08-14T13:47:43.526Z,28.10
2023-08-14T13:49:54.235Z,28.00
2023-08-14T13:51:56.317Z,28.10
2023-08-14T13:53:58.285Z,28.10
2023-08-14T13:56:00.242Z,28.10
2023-08-14T13:58:03.109Z,28.20
2023-08-14T14:00:06.409Z,28.00
2023-08-14T14:02:08.761Z,28.00
2023-08-14T14:04:12.272Z,28.00
2023-08-14T14:06:14.383Z,28.00
2023-08-14T14:08:16.359Z,28.10
2023-08-14T14:10:18.512Z,28.20
2023-08-14T14:12:20.593Z,28.30
2023-08-14T14:14:22.623Z,28.30
2023-08-14T14:16:25.695Z,28.30
2023-08-14T14:18:28.022Z,28.30
2023-08-14T14:20:31.546Z,28.30
2023-08-14T14:22:33.556Z,28.30
2023-08-14T14:24:36.325Z,28.50
2023-08-14T14:26:38.320Z,28.60
2023-08-14T14:28:40.281Z,28.50
2023-08-14T14:30:42.260Z,28.50
2023-08-14T14:32:44.277Z,28.50
2023-08-14T14:34:46.228Z,28.50
2023-08-14T14:36:49.702Z,28.50
2023-08-14T14:38:51.802Z,28.30
2023-08-14T14:40:53.866Z,28.30
2023-08-14T14:42:57.365Z,28.20
2023-08-14T14:44:59.353Z,28.00
2023-08-14T14:47:01.543Z,28.00
2023-08-14T14:49:03.788Z,28.00
2023-08-14T14:51:06.810Z,27.90
2023-08-14T14:53:10.262Z,27.90
2023-08-14T14:55:12.537Z,28.00
2023-08-14T14:57:14.748Z,27.90
2023-08-14T14:59:16.842Z,27.80
2023-08-14T15:01:19.027Z,27.80
2023-08-14T15:03:21.314Z,27.70
2023-08-14T15:07:28.408Z,27.70
2023-08-14T15:09:31.858Z,27.60
2023-08-14T15:11:34.226Z,27.60
2023-08-14T15:13:37.840Z,27.60
2023-08-14T15:15:40.092Z,27.60
2023-08-14T15:17:44.613Z,27.60
2023-08-14T15:19:47.253Z,27.60
2023-08-14T15:21:49.787Z,27.50
2023-08-14T15:23:51.825Z,27.50
2023-08-14T15:25:55.229Z,27.30
2023-08-14T15:27:57.525Z,27.30
2023-08-14T15:29:59.698Z,27.20
2023-08-14T15:32:01.734Z,27.20
2023-08-14T15:34:03.911Z,27.10
2023-08-14T15:36:06.480Z,27.10
2023-08-14T15:38:08.702Z,27.00
2023-08-14T15:40:12.002Z,27.00
2023-08-14T15:42:15.371Z,26.90
2023-08-14T15:44:17.378Z,26.80
2023-08-14T15:46:19.746Z,26.70
2023-08-14T15:48:21.769Z,26.60
2023-08-14T15:50:23.790Z,26.60
2023-08-14T15:52:31.601Z,26.70
2023-08-14T15:54:47.246Z,26.70
2023-08-14T15:56:55.325Z,26.70
2023-08-14T15:58:59.073Z,26.60
2023-08-14T16:01:01.078Z,26.50
2023-08-14T16:03:04.687Z,26.50
2023-08-14T16:05:08.132Z,26.40
2023-08-14T16:07:10.148Z,26.30
2023-08-14T16:09:13.491Z,26.20
2023-08-14T16:11:15.679Z,26.20
2023-08-14T16:13:17.971Z,26.10
2023-08-14T16:15:21.262Z,26.10
2023-08-14T16:17:23.321Z,26.10
2023-08-14T16:19:25.292Z,26.10
2023-08-14T16:21:27.480Z,26.10
2023-08-14T16:23:29.475Z,26.20
2023-08-14T16:25:31.500Z,26.10
2023-08-14T16:27:33.619Z,26.10
2023-08-14T16:29:35.690Z,26.00
2023-08-14T16:31:39.970Z,26.00
2023-08-14T16:33:42.072Z,25.90
2023-08-14T16:35:44.032Z,25.90
2023-08-14T16:37:46.044Z,25.90
2023-08-14T16:39:48.078Z,25.90
2023-08-14T16:41:50.028Z,25.90
2023-08-14T16:43:52.237Z,25.80
2023-08-14T16:45:55.191Z,25.80
2023-08-14T16:47:58.549Z,25.70
2023-08-14T16:50:00.703Z,25.70
2023-08-14T16:52:02.773Z,25.70
2023-08-14T16:54:05.466Z,25.70
2023-08-14T16:56:07.497Z,25.60
2023-08-14T16:58:09.469Z,25.60
2023-08-14T17:00:13.054Z,25.60
2023-08-14T17:02:15.487Z,25.50
2023-08-14T17:04:19.046Z,25.50
2023-08-14T17:06:21.351Z,25.50
2023-08-14T17:08:23.966Z,25.40
2023-08-14T17:10:26.047Z,25.40
2023-08-14T17:12:28.167Z,25.20
2023-08-14T17:14:30.318Z,25.20
2023-08-14T17:16:32.473Z,25.20
2023-08-14T17:18:34.793Z,25.10
2023-08-14T17:20:44.500Z,25.00
2023-08-14T17:22:46.599Z,24.80
2023-08-14T17:24:48.674Z,24.70
2023-08-14T17:26:50.646Z,24.60
2023-08-14T17:28:53.680Z,24.50
2023-08-14T17:30:56.447Z,24.20
2023-08-14T17:32:58.451Z,23.90
2023-08-14T17:35:01.482Z,23.80
2023-08-14T17:37:04.966Z,23.70
2023-08-14T17:39:08.810Z,23.60
2023-08-14T17:41:11.434Z,23.50
2023-08-14T17:43:13.573Z,23.50
2023-08-14T17:45:15.848Z,23.50
2023-08-14T17:47:18.112Z,23.40
2023-08-14T17:49:20.669Z,23.30
2023-08-14T17:51:22.910Z,23.30
2023-08-14T17:53:26.691Z,23.30
2023-08-14T17:55:28.681Z,23.40
2023-08-14T17:57:30.683Z,23.30
2023-08-14T17:59:32.688Z,23.20
2023-08-14T18:01:34.962Z,23.20
2023-08-14T18:03:37.089Z,23.20
2023-08-14T18:05:39.192Z,23.10
2023-08-14T18:07:43.059Z,23.20
2023-08-14T18:09:46.670Z,23.10
2023-08-14T18:11:48.664Z,23.10
2023-08-14T18:13:50.777Z,23.20
2023-08-14T18:15:52.813Z,23.10
2023-08-14T18:17:55.023Z,23.20
2023-08-14T18:19:57.420Z,23.10
2023-08-14T18:21:59.454Z,23.10
2023-08-14T18:24:01.707Z,23.10
2023-08-14T18:26:05.074Z,23.10
2023-08-14T18:28:07.173Z,23.10
2023-08-14T18:30:11.843Z,23.00
2023-08-14T18:32:13.827Z,23.00
2023-08-14T18:34:15.822Z,23.00
2023-08-14T18:36:17.813Z,22.90
2023-08-14T18:38:19.913Z,23.00
2023-08-14T18:40:21.917Z,23.00
2023-08-14T18:42:25.373Z,23.00
2023-08-14T18:44:27.628Z,23.00
2023-08-14T18:46:29.717Z,23.00
2023-08-14T18:48:31.715Z,23.00
2023-08-14T18:50:33.777Z,23.00
2023-08-14T18:52:36.183Z,23.00
2023-08-14T18:54:38.147Z,23.00
2023-08-14T18:56:40.160Z,23.00
2023-08-14T18:58:47.263Z,23.00
2023-08-14T19:00:49.291Z,23.00
2023-08-14T19:02:51.400Z,23.00
2023-08-14T19:04:53.989Z,23.00
2023-08-14T19:06:56.036Z,23.00
2023-08-14T19:08:58.060Z,23.00
2023-08-14T19:11:00.059Z,23.00
2023-08-14T19:13:02.106Z,23.00
2023-08-14T19:15:07.733Z,23.00
2023-08-14T19:17:09.799Z,23.00
2023-08-14T19:19:11.830Z,23.00
2023-08-14T19:21:15.707Z,22.90
2023-08-14T19:23:17.747Z,22.90
2023-08-14T19:25:19.754Z,22.90
2023-08-14T19:27:21.868Z,22.90
2023-08-14T19:29:23.875Z,22.90
2023-08-14T19:31:27.731Z,22.90
2023-08-14T19:33:30.133Z,22.80
2023-08-14T19:35:32.163Z,22.80
2023-08-14T19:37:34.152Z,22.80
2023-08-14T19:39:36.200Z,22.70
2023-08-14T19:41:38.210Z,22.70
2023-08-14T19:43:40.228Z,22.70
2023-08-14T19:45:42.216Z,22.70
2023-08-14T19:47:45.692Z,22.70
2023-08-14T19:49:47.782Z,22.70
2023-08-14T19:51:49.900Z,22.70
2023-08-14T19:53:52.261Z,22.70
2023-08-14T19:55:54.284Z,22.60
2023-08-14T19:57:56.293Z,22.60
2023-08-14T19:59:58.359Z,22.60
2023-08-14T20:02:00.396Z,22.50
2023-08-14T20:04:04.658Z,22.50
2023-08-14T20:06:06.865Z,22.50
2023-08-14T20:08:09.491Z,22.50
2023-08-14T20:10:11.691Z,22.50
2023-08-14T20:12:13.726Z,22.50
2023-08-14T20:14:16.653Z,22.50
2023-08-14T20:16:20.059Z,22.50
2023-08-14T20:18:24.351Z,22.40
2023-08-14T20:20:28.620Z,22.40
2023-08-14T20:22:31.996Z,22.40
2023-08-14T20:24:34.760Z,22.30
2023-08-14T20:26:38.078Z,22.30
2023-08-14T20:28:44.219Z,22.30
2023-08-14T20:30:48.238Z,22.30
2023-08-14T20:32:58.321Z,22.30
2023-08-14T20:35:04.863Z,22.30
2023-08-14T20:37:10.732Z,22.30
2023-08-14T20:39:13.811Z,22.30
2023-08-14T20:41:17.194Z,22.40
2023-08-14T20:43:23.378Z,22.30
2023-08-14T20:45:25.358Z,22.30
2023-08-14T20:47:28.038Z,22.30
2023-08-14T20:49:30.629Z,22.30
2023-08-14T20:51:33.450Z,22.20
2023-08-14T20:53:38.304Z,22.30
2023-08-14T20:55:42.891Z,22.20
2023-08-14T20:57:46.616Z,22.20
2023-08-14T20:59:50.176Z,22.20
2023-08-14T21:01:53.260Z,22.20
2023-08-14T21:03:55.917Z,22.20
2023-08-14T21:05:58.658Z,22.30
2023-08-14T21:08:00.805Z,22.20
2023-08-14T21:10:05.718Z,22.20
2023-08-14T21:12:08.400Z,22.20
2023-08-14T21:14:11.253Z,22.30
2023-08-14T21:16:14.089Z,22.30
2023-08-14T21:18:16.594Z,22.30
2023-08-14T21:20:19.424Z,22.30
2023-08-14T21:22:21.986Z,22.30
2023-08-14T21:24:25.296Z,22.30
2023-08-14T21:26:29.571Z,22.30
2023-08-14T21:28:31.612Z,22.20
2023-08-14T21:30:33.652Z,22.20
2023-08-14T21:32:37.054Z,22.20
2023-08-14T21:34:41.569Z,22.20
2023-08-14T21:36:43.860Z,22.20
2023-08-14T21:38:45.982Z,22.20
2023-08-14T21:40:48.751Z,22.20
2023-08-14T21:42:52.723Z,22.20
2023-08-14T21:44:54.830Z,22.20
2023-08-14T21:46:56.845Z,22.10
2023-08-14T21:48:58.853Z,22.10
2023-08-14T21:51:00.866Z,22.10
2023-08-14T21:53:03.013Z,22.10
2023-08-14T21:55:05.607Z,22.10
2023-08-14T21:57:07.613Z,22.10
2023-08-14T21:59:11.174Z,22.10
2023-08-14T22:01:13.269Z,22.10
2023-08-14T22:03:15.324Z,22.10
2023-08-14T22:05:17.279Z,22.10
2023-08-14T22:07:19.532Z,22.10
2023-08-14T22:09:21.708Z,22.10
2023-08-14T22:11:23.832Z,22.10
2023-08-14T22:13:25.888Z,22.10
2023-08-14T22:15:40.706Z,22.10
2023-08-14T22:17:47.748Z,22.10
2023-08-14T22:19:49.751Z,22.20
2023-08-14T22:21:51.796Z,22.20
2023-08-14T22:23:53.930Z,22.20
2023-08-14T22:25:55.909Z,22.20
2023-08-14T22:27:58.039Z,22.20
2023-08-14T22:30:00.025Z,22.10
2023-08-14T22:32:04.219Z,22.10
2023-08-14T22:34:06.273Z,22.10
2023-08-14T22:36:08.425Z,22.10
2023-08-14T22:38:10.363Z,22.10
2023-08-14T22:40:12.482Z,22.10
2023-08-14T22:42:14.527Z,22.20
2023-08-14T22:44:16.516Z,22.20
2023-08-14T22:46:18.510Z,22.20
2023-08-14T22:48:21.886Z,22.20
2023-08-14T22:50:23.913Z,22.20
2023-08-14T22:52:25.973Z,22.20
2023-08-14T22:54:27.927Z,22.20
2023-08-14T22:56:30.166Z,22.20
2023-08-14T22:58:32.116Z,22.10
2023-08-14T23:00:34.103Z,22.10
2023-08-14T23:02:39.068Z,22.10
2023-08-14T23:04:42.538Z,22.10
2023-08-14T23:06:44.779Z,22.20
2023-08-14T23:08:46.901Z,22.20
2023-08-14T23:10:48.871Z,22.20
2023-08-14T23:12:50.823Z,22.20
2023-08-14T23:14:52.878Z,22.20
2023-08-14T23:16:54.810Z,22.10
2023-08-14T23:18:56.831Z,22.10
2023-08-14T23:21:00.477Z,22.10
2023-08-14T23:23:02.490Z,22.10
2023-08-14T23:25:05.120Z,22.10
2023-08-14T23:27:07.113Z,22.10
2023-08-14T23:29:09.122Z,22.10
2023-08-14T23:31:11.509Z,22.10
2023-08-14T23:33:13.543Z,22.10
2023-08-14T23:35:15.653Z,22.10
2023-08-14T23:37:19.258Z,22.00
2023-08-14T23:39:21.693Z,22.10
2023-08-14T23:41:23.669Z,22.00
2023-08-14T23:43:25.688Z,22.10
2023-08-14T23:45:27.729Z,22.10
2023-08-14T23:47:29.834Z,22.10
2023-08-14T23:49:31.840Z,22.10
2023-08-14T23:51:33.816Z,22.10
2023-08-14T23:53:37.175Z,22.10
2023-08-14T23:55:39.180Z,22.10
2023-08-14T23:57:41.221Z,22.10
2023-08-14T23:59:43.438Z,22.10
